Time;durP1;ratioP1;P1;durP2;ratioP2;P2;SDS_P1;SDS_P2;PMS_P1;PMS_P2;Temp;Humidity;BMP_temperature;BMP_pressure;BME280_temperature;BME280_humidity;BME280_pressure;Samples;Min_cycle;Max_cycle;Signal;HPM_P1;HPM_P2
2021/03/19 00:00:57;;;;;;;21.53;4.60;;;21.40;99.90;;;;;;5072066;28;20187;-65
2021/03/19 00:03:25;;;;;;;20.43;3.67;;;21.50;99.90;;;;;;5072487;28;20168;-68
2021/03/19 00:05:52;;;;;;;21.37;3.20;;;21.70;99.90;;;;;;5072619;28;20205;-70
2021/03/19 00:08:19;;;;;;;22.33;4.83;;;21.80;99.90;;;;;;5071200;28;20183;-70
2021/03/19 00:10:47;;;;;;;17.30;3.27;;;22.00;99.90;;;;;;5071218;28;20274;-71
2021/03/19 00:13:14;;;;;;;18.03;3.73;;;22.00;99.90;;;;;;5068176;28;20213;-69
2021/03/19 00:15:42;;;;;;;19.73;4.70;;;22.10;99.90;;;;;;5067906;28;20694;-71
2021/03/19 00:18:09;;;;;;;27.27;3.63;;;22.10;99.90;;;;;;5064819;28;20215;-72
2021/03/19 00:20:40;;;;;;;14.53;2.47;;;22.10;99.90;;;;;;5070988;28;20254;-70
2021/03/19 00:23:08;;;;;;;22.30;3.40;;;22.10;99.90;;;;;;5072311;28;20206;-71
2021/03/19 00:25:37;;;;;;;17.43;3.07;;;22.00;99.90;;;;;;5072303;28;20187;-72
2021/03/19 00:28:06;;;;;;;21.73;3.77;;;22.00;99.90;;;;;;5064182;28;20227;-68
2021/03/19 00:30:34;;;;;;;25.07;4.03;;;22.10;99.90;;;;;;5070350;28;20175;-69
2021/03/19 00:33:02;;;;;;;18.13;3.33;;;22.20;99.90;;;;;;5071741;28;20211;-71
2021/03/19 00:35:30;;;;;;;16.43;2.90;;;22.20;99.90;;;;;;5065875;28;20176;-71
2021/03/19 00:38:01;;;;;;;12.47;2.57;;;22.20;99.90;;;;;;5057931;28;20187;-71
2021/03/19 00:40:29;;;;;;;15.53;3.10;;;22.30;99.90;;;;;;5065677;28;20262;-71
2021/03/19 00:42:57;;;;;;;23.33;2.93;;;22.40;99.90;;;;;;5071800;28;20175;-72
2021/03/19 00:45:26;;;;;;;22.77;3.40;;;22.40;99.90;;;;;;5058704;28;20214;-69
2021/03/19 00:47:54;;;;;;;19.20;3.37;;;22.40;99.90;;;;;;5072185;28;20209;-70
2021/03/19 00:50:38;;;;;;;23.20;3.00;;;22.40;99.90;;;;;;5071353;28;20198;-70
2021/03/19 00:53:07;;;;;;;13.00;2.57;;;22.50;99.90;;;;;;5064080;28;20258;-69
2021/03/19 00:55:34;;;;;;;23.83;2.90;;;22.70;99.90;;;;;;5066662;28;20203;-71
2021/03/19 00:58:02;;;;;;;24.50;3.27;;;22.80;99.90;;;;;;5058620;28;20220;-70
2021/03/19 01:00:34;;;;;;;20.20;3.43;;;22.80;99.90;;;;;;5072244;28;20168;-71
2021/03/19 01:03:06;;;;;;;16.83;2.67;;;23.00;99.90;;;;;;5071554;28;20175;-69
2021/03/19 01:05:39;;;;;;;15.87;2.90;;;23.20;99.90;;;;;;5071375;28;20630;-71
2021/03/19 01:08:09;;;;;;;18.73;2.50;;;23.30;99.90;;;;;;5058002;28;20182;-70
2021/03/19 01:10:40;;;;;;;20.40;2.87;;;23.50;99.90;;;;;;5059690;28;20603;-71
2021/03/19 01:13:08;;;;;;;17.87;2.60;;;23.50;99.90;;;;;;5069780;28;20294;-72
2021/03/19 01:15:36;;;;;;;14.43;2.23;;;23.40;99.90;;;;;;5071992;28;20319;-72
2021/03/19 01:18:06;;;;;;;13.67;2.40;;;23.20;99.90;;;;;;5070518;28;20179;-71
2021/03/19 01:20:34;;;;;;;13.87;2.07;;;23.20;99.90;;;;;;5071479;28;20634;-71
2021/03/19 01:23:01;;;;;;;20.53;2.50;;;23.20;99.90;;;;;;5071458;28;20171;-70
2021/03/19 01:25:29;;;;;;;21.97;2.93;;;23.10;99.90;;;;;;5071869;28;20542;-71
2021/03/19 01:27:57;;;;;;;15.93;2.10;;;23.10;99.90;;;;;;5071371;28;20309;-69
2021/03/19 01:30:27;;;;;;;13.90;2.97;;;23.10;99.90;;;;;;5071751;28;20185;-68
2021/03/19 01:32:54;;;;;;;16.80;3.23;;;23.20;99.90;;;;;;5071067;28;20215;-68
2021/03/19 01:35:23;;;;;;;18.60;2.67;;;23.10;99.90;;;;;;5066080;28;20653;-67
2021/03/19 01:37:52;;;;;;;19.37;3.40;;;23.20;99.90;;;;;;5071654;28;20186;-70
2021/03/19 01:40:24;;;;;;;16.77;2.90;;;23.20;99.90;;;;;;5071192;28;20167;-67
2021/03/19 01:43:09;;;;;;;20.70;3.20;;;23.30;99.90;;;;;;5071160;28;20187;-70
2021/03/19 01:46:04;;;;;;;16.00;2.63;;;23.40;99.90;;;;;;5057028;28;20171;-70
2021/03/19 01:49:07;;;;;;;12.33;2.60;;;23.80;99.90;;;;;;5073066;28;20175;-69
2021/03/19 01:52:11;;;;;;;16.63;3.30;;;24.40;99.90;;;;;;5075053;28;20203;-71
2021/03/19 01:55:14;;;;;;;13.97;2.73;;;25.10;99.90;;;;;;5072826;28;20182;-68
2021/03/19 01:58:18;;;;;;;17.60;2.33;;;25.50;99.90;;;;;;5065234;28;20206;-69
2021/03/19 02:01:22;;;;;;;14.80;2.40;;;25.60;99.90;;;;;;5074586;28;20540;-70
2021/03/19 02:04:26;;;;;;;11.40;2.37;;;25.80;99.90;;;;;;5074318;28;20179;-68
2021/03/19 02:07:29;;;;;;;16.90;3.07;;;26.10;99.90;;;;;;5055460;28;20175;-71
2021/03/19 02:10:32;;;;;;;14.57;2.80;;;25.70;99.90;;;;;;5071805;28;20194;-69
2021/03/19 02:13:36;;;;;;;18.77;2.83;;;25.10;99.90;;;;;;5074917;28;20211;-70
2021/03/19 02:16:40;;;;;;;15.47;2.73;;;25.40;99.90;;;;;;5075309;28;20660;-68
2021/03/19 02:19:43;;;;;;;15.93;2.70;;;25.40;99.90;;;;;;5070746;28;20687;-71
2021/03/19 02:22:47;;;;;;;16.80;2.77;;;25.60;99.90;;;;;;5074767;28;20195;-70
2021/03/19 02:25:50;;;;;;;11.20;2.27;;;25.80;99.90;;;;;;5074907;28;20175;-67
2021/03/19 02:28:54;;;;;;;14.00;2.80;;;25.50;99.90;;;;;;5073823;28;20233;-67
2021/03/19 02:32:00;;;;;;;14.87;2.57;;;25.30;99.90;;;;;;5073168;28;20211;-68
2021/03/19 02:34:44;;;;;;;16.53;3.10;;;25.40;99.90;;;;;;5053360;28;20677;-68
2021/03/19 02:37:19;;;;;;;19.53;2.93;;;25.20;99.90;;;;;;5061049;28;20175;-69
2021/03/19 02:39:47;;;;;;;15.27;2.70;;;25.00;99.90;;;;;;5073556;28;20190;-67
2021/03/19 02:42:17;;;;;;;13.80;3.23;;;25.10;99.90;;;;;;5074477;28;20589;-68
2021/03/19 02:44:45;;;;;;;12.80;2.97;;;25.70;99.90;;;;;;5074204;28;20629;-69
2021/03/19 02:47:13;;;;;;;12.73;2.93;;;25.80;99.90;;;;;;5074329;28;20206;-67
2021/03/19 02:49:41;;;;;;;17.40;2.53;;;26.00;99.90;;;;;;5073178;28;20183;-67
2021/03/19 02:52:08;;;;;;;18.97;3.20;;;26.20;99.90;;;;;;5074465;28;20336;-67
2021/03/19 02:54:37;;;;;;;16.07;2.60;;;26.30;99.90;;;;;;5074772;28;20179;-67
2021/03/19 02:57:05;;;;;;;17.67;3.27;;;26.50;99.90;;;;;;5075504;28;20174;-71
2021/03/19 02:59:32;;;;;;;12.60;2.50;;;26.70;99.90;;;;;;5075270;28;20210;-71
2021/03/19 03:02:00;;;;;;;14.07;2.50;;;26.40;99.90;;;;;;5075149;28;20229;-72
2021/03/19 03:04:27;;;;;;;11.97;2.27;;;25.50;99.90;;;;;;5074881;28;20175;-71
2021/03/19 03:06:57;;;;;;;9.77;2.10;;;25.30;99.90;;;;;;5075187;28;20206;-70
2021/03/19 03:09:32;;;;;;;14.53;2.30;;;25.00;99.90;;;;;;5074879;28;20648;-69
2021/03/19 03:12:00;;;;;;;9.37;1.70;;;24.60;99.90;;;;;;5074791;28;20203;-70
2021/03/19 03:14:30;;;;;;;9.70;1.87;;;23.80;99.90;;;;;;5074718;28;20171;-70
2021/03/19 03:17:02;;;;;;;13.77;2.40;;;23.30;99.90;;;;;;5074614;28;20284;-69
2021/03/19 03:19:31;;;;;;;10.23;2.13;;;23.10;99.90;;;;;;5073556;28;20187;-70
2021/03/19 03:21:59;;;;;;;15.83;2.87;;;22.80;99.90;;;;;;5073175;28;20192;-69
2021/03/19 03:24:28;;;;;;;16.83;3.50;;;22.30;99.90;;;;;;5074577;28;20290;-69
2021/03/19 03:26:56;;;;;;;12.47;3.03;;;22.20;99.90;;;;;;5074442;28;20253;-71
2021/03/19 03:29:26;;;;;;;17.20;2.50;;;22.20;99.90;;;;;;5074191;28;20191;-68
2021/03/19 03:31:56;;;;;;;17.80;2.93;;;21.90;99.90;;;;;;5074084;28;20207;-69
2021/03/19 03:34:24;;;;;;;21.30;3.63;;;21.90;99.90;;;;;;5073902;28;20255;-70
2021/03/19 03:36:52;;;;;;;18.67;3.53;;;21.70;99.90;;;;;;5071694;28;20179;-67
2021/03/19 03:39:25;;;;;;;15.57;2.77;;;21.70;99.90;;;;;;5054089;28;20238;-69
2021/03/19 03:41:54;;;;;;;12.97;2.50;;;21.70;99.90;;;;;;5070710;28;20785;-66
2021/03/19 03:44:22;;;;;;;20.47;3.23;;;21.80;99.90;;;;;;5073854;28;20537;-68
2021/03/19 03:46:50;;;;;;;14.80;2.73;;;21.90;99.90;;;;;;5073085;28;20265;-67
2021/03/19 03:49:18;;;;;;;14.73;2.40;;;22.10;99.90;;;;;;5072306;28;20533;-67
2021/03/19 03:51:47;;;;;;;14.47;2.67;;;22.40;99.90;;;;;;5052920;28;20709;-70
2021/03/19 03:54:15;;;;;;;23.93;3.23;;;22.60;99.90;;;;;;5067194;28;20175;-70
2021/03/19 03:56:44;;;;;;;19.10;4.73;;;23.00;99.90;;;;;;5072740;28;20194;-67
2021/03/19 03:59:12;;;;;;;13.93;3.60;;;23.10;99.90;;;;;;5072305;28;20171;-68
2021/03/19 04:01:42;;;;;;;14.40;2.60;;;23.40;99.90;;;;;;5070708;28;20513;-68
2021/03/19 04:04:17;;;;;;;12.40;2.40;;;23.70;99.90;;;;;;5071786;28;20241;-67
2021/03/19 04:06:44;;;;;;;20.40;3.63;;;23.80;99.90;;;;;;5071629;28;20238;-67
2021/03/19 04:09:12;;;;;;;16.30;3.87;;;23.60;99.90;;;;;;5072460;28;20510;-68
2021/03/19 04:11:40;;;;;;;14.80;3.00;;;23.70;99.90;;;;;;5072182;28;20203;-68
2021/03/19 04:14:08;;;;;;;19.23;2.73;;;23.60;99.90;;;;;;5073009;28;20228;-68
2021/03/19 04:16:36;;;;;;;14.03;2.33;;;23.50;99.90;;;;;;5073017;28;20179;-68
2021/03/19 04:19:04;;;;;;;11.47;2.07;;;23.60;99.90;;;;;;5069124;28;20201;-66
2021/03/19 04:21:33;;;;;;;10.90;2.57;;;23.50;99.90;;;;;;5069599;28;20175;-68
2021/03/19 04:24:00;;;;;;;16.43;2.80;;;23.50;99.90;;;;;;5073316;28;20209;-67
2021/03/19 04:26:32;;;;;;;16.23;3.13;;;23.70;99.90;;;;;;5074271;28;20171;-67
2021/03/19 04:29:00;;;;;;;15.20;2.50;;;23.80;99.90;;;;;;5073658;28;20252;-69
2021/03/19 04:31:27;;;;;;;16.03;2.47;;;24.20;99.90;;;;;;5073274;28;20242;-68
2021/03/19 04:33:55;;;;;;;13.93;2.57;;;24.20;99.90;;;;;;5072813;28;20546;-68
2021/03/19 04:36:30;;;;;;;14.17;2.40;;;24.20;99.90;;;;;;5073331;28;20267;-69
2021/03/19 04:39:00;;;;;;;17.47;3.10;;;24.20;99.90;;;;;;5072831;28;20723;-68
2021/03/19 04:41:31;;;;;;;13.53;2.30;;;24.10;99.90;;;;;;5070489;28;20171;-69
2021/03/19 04:43:59;;;;;;;16.70;2.60;;;24.20;99.90;;;;;;5065739;28;20572;-67
2021/03/19 04:46:27;;;;;;;14.97;2.57;;;24.10;99.90;;;;;;5064823;28;20638;-69
2021/03/19 04:48:54;;;;;;;11.00;2.27;;;24.10;99.90;;;;;;5072555;28;20545;-68
2021/03/19 04:51:22;;;;;;;13.53;2.40;;;23.90;99.90;;;;;;5072642;28;20213;-68
2021/03/19 04:53:49;;;;;;;13.20;2.57;;;23.80;99.90;;;;;;5069871;28;20692;-68
2021/03/19 04:56:17;;;;;;;15.37;2.33;;;23.70;99.90;;;;;;5071747;28;20218;-69
2021/03/19 04:58:44;;;;;;;12.33;2.73;;;23.60;99.90;;;;;;5064199;28;20180;-68
2021/03/19 05:01:12;;;;;;;16.40;2.97;;;23.50;99.90;;;;;;5068340;28;20182;-68
2021/03/19 05:03:40;;;;;;;13.33;2.37;;;23.50;99.90;;;;;;5066568;28;20266;-67
2021/03/19 05:06:07;;;;;;;16.70;2.17;;;23.40;99.90;;;;;;5065928;28;20248;-71
2021/03/19 05:08:36;;;;;;;13.23;2.23;;;23.40;99.90;;;;;;5071447;28;20171;-69
2021/03/19 05:11:04;;;;;;;15.93;2.47;;;23.40;99.90;;;;;;5074953;28;20269;-67
2021/03/19 05:13:31;;;;;;;16.87;2.80;;;23.30;99.90;;;;;;5080973;28;20180;-70
2021/03/19 05:15:58;;;;;;;16.27;3.00;;;23.10;99.90;;;;;;5064666;28;20609;-70
2021/03/19 05:18:26;;;;;;;20.33;2.90;;;23.10;99.90;;;;;;5071214;28;20656;-71
2021/03/19 05:20:54;;;;;;;15.10;2.40;;;23.10;99.90;;;;;;5061714;28;20184;-68
2021/03/19 05:23:27;;;;;;;13.03;2.50;;;23.10;99.90;;;;;;5066638;28;20194;-71
2021/03/19 05:25:55;;;;;;;15.27;3.57;;;23.10;99.90;;;;;;5074559;28;20295;-70
2021/03/19 05:28:24;;;;;;;15.97;3.17;;;23.10;99.90;;;;;;5076227;28;20595;-68
2021/03/19 05:30:53;;;;;;;14.57;2.53;;;23.10;99.90;;;;;;5075746;28;20213;-68
2021/03/19 05:33:26;;;;;;;15.07;2.97;;;23.10;99.90;;;;;;5074551;28;20214;-70
2021/03/19 05:35:55;;;;;;;11.37;2.27;;;23.10;99.90;;;;;;5073299;28;20206;-66
2021/03/19 05:38:23;;;;;;;15.77;2.97;;;23.10;99.90;;;;;;5075693;28;20167;-69
2021/03/19 05:40:56;;;;;;;14.27;2.57;;;23.10;99.90;;;;;;5075510;28;20191;-66
2021/03/19 05:43:23;;;;;;;12.27;2.27;;;23.10;99.90;;;;;;5075354;28;20187;-68
2021/03/19 05:45:55;;;;;;;16.07;3.53;;;23.00;99.90;;;;;;5074388;28;20210;-69
2021/03/19 05:48:26;;;;;;;23.27;6.50;;;23.10;99.90;;;;;;5075663;28;20183;-68
2021/03/19 05:50:55;;;;;;;18.90;3.07;;;23.10;99.90;;;;;;5074532;28;20536;-69
2021/03/19 05:53:40;;;;;;;19.53;3.90;;;23.10;99.90;;;;;;5072668;28;20516;-70
2021/03/19 05:56:31;;;;;;;19.63;2.83;;;23.20;99.90;;;;;;5075713;28;20174;-70
2021/03/19 05:58:59;;;;;;;16.57;2.73;;;23.30;99.90;;;;;;5072511;28;20195;-71
2021/03/19 06:01:27;;;;;;;15.77;3.67;;;23.40;99.90;;;;;;5074606;28;20266;-68
2021/03/19 06:03:58;;;;;;;19.50;3.20;;;23.50;99.90;;;;;;5074604;28;20179;-68
2021/03/19 06:06:52;;;;;;;14.77;2.67;;;23.50;99.90;;;;;;5071566;28;20214;-68
2021/03/19 06:09:30;;;;;;;17.20;3.10;;;23.70;99.90;;;;;;5064576;28;20244;-69
2021/03/19 06:12:10;;;;;;;20.70;3.80;;;23.70;99.90;;;;;;5072273;28;20261;-69
2021/03/19 06:14:54;;;;;;;26.10;3.83;;;23.80;99.90;;;;;;5074841;28;20202;-69
2021/03/19 06:17:49;;;;;;;15.00;2.60;;;23.90;99.90;;;;;;5074997;28;20202;-70
2021/03/19 06:20:19;;;;;;;19.43;2.77;;;23.90;99.90;;;;;;5086283;28;20209;-70
2021/03/19 06:23:04;;;;;;;20.57;3.13;;;23.80;99.90;;;;;;5074788;28;20178;-71
2021/03/19 06:25:56;;;;;;;18.07;4.10;;;23.90;99.90;;;;;;5074281;28;20183;-71
2021/03/19 06:28:40;;;;;;;25.23;6.03;;;23.90;99.90;;;;;;5074368;28;20222;-69
2021/03/19 06:31:16;;;;;;;15.23;3.37;;;23.70;99.90;;;;;;5064201;28;20597;-72
2021/03/19 06:33:44;;;;;;;17.33;2.67;;;23.70;99.90;;;;;;5067146;28;20183;-69
2021/03/19 06:36:21;;;;;;;16.80;2.60;;;23.60;99.90;;;;;;5067994;28;20184;-71
2021/03/19 06:39:02;;;;;;;20.23;3.23;;;23.40;99.90;;;;;;5074140;28;20217;-68
2021/03/19 06:41:34;;;;;;;15.00;2.93;;;23.40;99.90;;;;;;5073501;28;20191;-65
2021/03/19 06:44:15;;;;;;;19.27;3.10;;;23.30;99.90;;;;;;5074679;28;20479;-68
2021/03/19 06:46:53;;;;;;;19.40;4.20;;;23.00;99.90;;;;;;5074086;28;20190;-68
2021/03/19 06:49:23;;;;;;;25.87;6.63;;;22.80;99.90;;;;;;5072993;28;20543;-69
2021/03/19 06:51:54;;;;;;;15.80;3.03;;;22.80;99.90;;;;;;5073670;28;20199;-68
2021/03/19 06:54:27;;;;;;;15.80;2.70;;;22.70;99.90;;;;;;5074191;28;20718;-70
2021/03/19 06:57:08;;;;;;;18.50;3.10;;;22.70;99.90;;;;;;5073167;28;20270;-68
2021/03/19 07:00:02;;;;;;;12.57;2.70;;;22.70;99.90;;;;;;5073592;28;20226;-69
2021/03/19 07:02:53;;;;;;;16.03;3.10;;;22.70;99.90;;;;;;5072164;28;20244;-67
2021/03/19 07:05:39;;;;;;;17.13;2.80;;;22.70;99.90;;;;;;5073303;28;20207;-68
2021/03/19 07:08:23;;;;;;;11.83;2.63;;;22.70;99.90;;;;;;5070504;28;20282;-70
2021/03/19 07:11:32;;;;;;;17.73;2.90;;;22.70;99.90;;;;;;5065023;28;20182;-67
2021/03/19 07:14:39;;;;;;;12.97;2.57;;;22.60;99.90;;;;;;5071568;28;20199;-68
2021/03/19 07:17:25;;;;;;;16.13;3.13;;;22.60;99.90;;;;;;5072473;28;20183;-69
2021/03/19 07:20:29;;;;;;;22.30;4.90;;;22.60;99.90;;;;;;5070343;28;20179;-69
2021/03/19 07:23:19;;;;;;;15.70;3.17;;;22.60;99.90;;;;;;5057127;28;20665;-68
2021/03/19 07:25:58;;;;;;;18.77;2.80;;;22.50;99.90;;;;;;5058968;28;20540;-68
2021/03/19 07:28:52;;;;;;;16.23;2.63;;;22.50;99.90;;;;;;5071460;28;20215;-69
2021/03/19 07:31:43;;;;;;;13.37;2.67;;;22.50;99.90;;;;;;5065319;28;20206;-68
2021/03/19 07:34:40;;;;;;;14.00;3.13;;;22.50;99.90;;;;;;5063947;28;20183;-66
2021/03/19 07:37:26;;;;;;;21.87;6.07;;;22.50;99.90;;;;;;5071922;28;20191;-66
2021/03/19 07:39:59;;;;;;;16.93;3.50;;;22.40;99.90;;;;;;5073070;28;20186;-66
2021/03/19 07:42:26;;;;;;;15.70;2.33;;;22.50;99.90;;;;;;5073477;28;20170;-66
2021/03/19 07:45:20;;;;;;;14.73;2.97;;;22.40;99.90;;;;;;5073127;28;20237;-67
2021/03/19 07:48:07;;;;;;;12.63;2.27;;;22.30;99.90;;;;;;5060751;28;20175;-68
2021/03/19 07:51:02;;;;;;;11.10;2.50;;;22.10;99.90;;;;;;5070154;28;20198;-67
2021/03/19 07:53:53;;;;;;;8.53;1.83;;;21.70;99.90;;;;;;5071270;28;20349;-71
2021/03/19 07:56:55;;;;;;;9.67;1.87;;;21.60;99.90;;;;;;5068829;28;20526;-68
2021/03/19 07:59:41;;;;;;;13.33;2.67;;;21.60;99.90;;;;;;5074225;28;20213;-68
2021/03/19 08:02:28;;;;;;;14.70;2.43;;;21.60;99.90;;;;;;5073750;28;20181;-69
2021/03/19 08:05:27;;;;;;;15.47;2.73;;;21.50;99.90;;;;;;5072977;28;20515;-68
2021/03/19 08:08:19;;;;;;;16.23;3.17;;;21.50;99.90;;;;;;5073942;28;20609;-67
2021/03/19 08:10:47;;;;;;;21.77;3.57;;;21.50;99.90;;;;;;5073785;28;20236;-71
2021/03/19 08:13:42;;;;;;;28.43;4.97;;;21.40;99.90;;;;;;5073537;28;20211;-66
2021/03/19 08:16:28;;;;;;;24.33;3.70;;;21.40;99.90;;;;;;5073569;28;20171;-68
2021/03/19 08:19:06;;;;;;;18.77;4.30;;;21.20;99.90;;;;;;5072476;28;20409;-68
2021/03/19 08:21:54;;;;;;;18.77;3.73;;;20.80;99.90;;;;;;5073663;28;20182;-68
2021/03/19 08:24:30;;;;;;;21.10;3.47;;;20.60;99.90;;;;;;5073335;28;20174;-70
2021/03/19 08:27:14;;;;;;;11.90;2.40;;;20.30;99.90;;;;;;5073229;28;20180;-69
2021/03/19 08:30:03;;;;;;;15.63;2.83;;;20.20;99.90;;;;;;5073436;28;20557;-69
2021/03/19 08:33:04;;;;;;;19.90;3.33;;;20.10;99.90;;;;;;5073185;28;20210;-67
2021/03/19 08:35:34;;;;;;;12.00;3.33;;;20.00;99.90;;;;;;5073318;28;20172;-69
2021/03/19 08:38:25;;;;;;;21.97;3.67;;;20.00;99.90;;;;;;5073314;28;20230;-70
2021/03/19 08:41:04;;;;;;;20.90;3.40;;;19.90;99.90;;;;;;5073315;28;20519;-71
2021/03/19 08:43:43;;;;;;;17.90;3.30;;;19.90;99.90;;;;;;5073454;28;20179;-69
2021/03/19 08:46:25;;;;;;;21.27;3.97;;;19.90;99.90;;;;;;5073246;28;20558;-66
2021/03/19 08:48:59;;;;;;;24.83;3.83;;;19.90;99.90;;;;;;5071616;28;20507;-69
2021/03/19 08:51:30;;;;;;;21.70;3.13;;;19.90;99.90;;;;;;5072829;28;20368;-68
2021/03/19 08:54:31;;;;;;;22.93;3.60;;;20.00;99.90;;;;;;5072826;28;20187;-70
2021/03/19 08:57:05;;;;;;;21.10;3.93;;;20.00;99.90;;;;;;5056860;28;20225;-71
2021/03/19 08:59:34;;;;;;;23.87;3.80;;;20.00;99.90;;;;;;5073042;28;20224;-71
2021/03/19 09:02:01;;;;;;;24.77;4.40;;;20.10;99.90;;;;;;5072471;28;20270;-70
2021/03/19 09:04:53;;;;;;;32.63;4.63;;;20.10;99.90;;;;;;5072444;28;20190;-69
2021/03/19 09:08:07;;;;;;;18.23;3.47;;;20.20;99.90;;;;;;5072784;28;20187;-71
2021/03/19 09:10:34;;;;;;;17.17;3.40;;;20.40;99.90;;;;;;5069182;28;20179;-69
2021/03/19 09:13:08;;;;;;;17.60;3.13;;;20.40;99.90;;;;;;5056239;28;20220;-70
2021/03/19 09:15:38;;;;;;;19.23;2.80;;;20.50;99.90;;;;;;5052366;28;20248;-71
2021/03/19 09:18:26;;;;;;;23.47;3.60;;;20.40;99.90;;;;;;5051571;28;20405;-70
2021/03/19 09:21:04;;;;;;;18.47;3.60;;;20.50;99.90;;;;;;5054607;28;20176;-69
2021/03/19 09:23:53;;;;;;;20.73;3.70;;;20.60;99.90;;;;;;5073324;28;20232;-69
2021/03/19 09:26:32;;;;;;;25.63;3.67;;;20.70;99.90;;;;;;5072840;28;20175;-67
2021/03/19 09:29:18;;;;;;;19.37;3.77;;;20.70;99.90;;;;;;5072191;28;20226;-69
2021/03/19 09:31:53;;;;;;;22.30;3.50;;;20.70;99.90;;;;;;5072835;28;20261;-68
2021/03/19 09:34:47;;;;;;;16.27;3.00;;;20.80;99.90;;;;;;5066412;28;20193;-70
2021/03/19 09:37:36;;;;;;;23.37;3.03;;;20.80;99.90;;;;;;5041541;28;20191;-71
2021/03/19 09:40:43;;;;;;;23.57;4.03;;;20.80;99.90;;;;;;5069362;28;20178;-69
2021/03/19 09:43:49;;;;;;;20.33;3.30;;;20.80;99.90;;;;;;5052345;28;20168;-70
2021/03/19 09:46:22;;;;;;;22.47;3.73;;;20.80;99.90;;;;;;5052925;28;20183;-71
2021/03/19 09:49:07;;;;;;;21.07;3.17;;;20.80;99.90;;;;;;5056271;28;20684;-71
2021/03/19 09:52:14;;;;;;;16.27;2.83;;;20.80;99.90;;;;;;5071568;28;20649;-67
2021/03/19 09:54:42;;;;;;;18.13;2.40;;;20.80;99.90;;;;;;5068675;28;20195;-71
2021/03/19 09:57:20;;;;;;;17.87;2.67;;;20.80;99.90;;;;;;5070705;28;20175;-68
2021/03/19 10:00:07;;;;;;;13.60;2.50;;;20.80;99.90;;;;;;5071393;28;20171;-71
2021/03/19 10:02:40;;;;;;;15.00;2.87;;;20.80;99.90;;;;;;5067595;28;20187;-69
2021/03/19 10:05:18;;;;;;;20.80;3.03;;;20.80;99.90;;;;;;5063584;28;20281;-68
2021/03/19 10:07:56;;;;;;;19.43;2.80;;;20.90;99.90;;;;;;5072433;28;20188;-68
2021/03/19 10:11:00;;;;;;;19.70;2.77;;;20.80;99.90;;;;;;5075453;28;20171;-70
2021/03/19 10:13:27;;;;;;;18.73;3.33;;;20.90;99.90;;;;;;5065554;28;20578;-71
2021/03/19 10:15:57;;;;;;;14.10;3.53;;;20.90;99.90;;;;;;5075830;28;20197;-69
2021/03/19 10:18:43;;;;;;;18.37;3.30;;;20.90;99.90;;;;;;5075682;28;20179;-67
2021/03/19 10:21:15;;;;;;;9.07;2.73;;;20.90;99.90;;;;;;5075065;28;20572;-68
2021/03/19 10:23:58;;;;;;;14.03;2.50;;;20.90;99.90;;;;;;5075664;28;20175;-70
2021/03/19 10:26:32;;;;;;;16.43;2.70;;;20.90;99.90;;;;;;5075633;28;20183;-70
2021/03/19 10:29:22;;;;;;;16.17;3.70;;;20.80;99.90;;;;;;5075170;28;20297;-70
2021/03/19 10:31:55;;;;;;;16.40;2.97;;;20.80;99.90;;;;;;5075164;28;20300;-68
2021/03/19 10:34:23;;;;;;;18.03;2.90;;;20.70;99.90;;;;;;5075187;28;20187;-67
2021/03/19 10:37:24;;;;;;;21.07;4.03;;;20.50;99.90;;;;;;5074997;28;20268;-67
2021/03/19 10:40:03;;;;;;;14.83;2.67;;;20.10;99.90;;;;;;5066904;28;20194;-68
2021/03/19 10:43:01;;;;;;;17.67;2.30;;;19.70;99.90;;;;;;5074774;28;20228;-68
2021/03/19 10:45:31;;;;;;;15.17;2.60;;;19.60;99.90;;;;;;5054609;28;20188;-68
2021/03/19 10:48:08;;;;;;;18.00;2.83;;;19.60;99.90;;;;;;5064726;28;20184;-67
2021/03/19 10:51:02;;;;;;;13.80;2.87;;;19.60;99.90;;;;;;5071643;28;20685;-69
2021/03/19 10:53:41;;;;;;;22.07;3.23;;;19.60;99.90;;;;;;5067675;28;20227;-69
2021/03/19 10:56:09;;;;;;;18.47;2.77;;;19.60;99.90;;;;;;5060750;28;20183;-70
2021/03/19 10:58:54;;;;;;;25.97;4.80;;;19.60;99.90;;;;;;5074509;28;20175;-68
2021/03/19 11:01:34;;;;;;;22.93;4.00;;;19.60;99.90;;;;;;5074434;28;20254;-70
2021/03/19 11:04:26;;;;;;;16.23;3.67;;;19.50;99.90;;;;;;5058557;28;20215;-69
2021/03/19 11:06:57;;;;;;;16.27;2.70;;;19.40;99.90;;;;;;5060836;28;20187;-69
2021/03/19 11:09:29;;;;;;;13.97;2.80;;;19.40;99.90;;;;;;5073981;28;20191;-69
2021/03/19 11:12:18;;;;;;;21.10;3.27;;;19.30;99.90;;;;;;5074320;28;20210;-69
2021/03/19 11:14:58;;;;;;;13.60;2.90;;;19.40;99.90;;;;;;5073783;28;20654;-70
2021/03/19 11:17:26;;;;;;;21.13;4.37;;;19.30;99.90;;;;;;5072851;28;20175;-68
2021/03/19 11:20:03;;;;;;;26.83;3.60;;;19.40;99.90;;;;;;5072192;28;20696;-69
2021/03/19 11:22:40;;;;;;;24.90;4.00;;;19.50;99.90;;;;;;5072945;28;20653;-67
2021/03/19 11:25:26;;;;;;;33.10;4.93;;;19.60;99.90;;;;;;5059389;28;20189;-70
2021/03/19 11:27:54;;;;;;;28.97;4.30;;;19.70;99.90;;;;;;5073219;28;20226;-68
2021/03/19 11:30:37;;;;;;;32.90;4.60;;;19.80;99.90;;;;;;5073995;28;20179;-69
2021/03/19 11:33:14;;;;;;;23.13;4.13;;;19.90;99.90;;;;;;5071723;28;20220;-68
2021/03/19 11:35:41;;;;;;;33.70;3.83;;;20.00;99.90;;;;;;5073598;28;20220;-69
2021/03/19 11:38:36;;;;;;;29.00;4.13;;;20.00;99.90;;;;;;5073570;28;20182;-70
2021/03/19 11:41:20;;;;;;;28.13;4.97;;;20.00;99.90;;;;;;5072196;28;20187;-69
2021/03/19 11:43:48;;;;;;;31.87;3.83;;;20.10;99.90;;;;;;5073819;28;20228;-67
2021/03/19 11:46:15;;;;;;;23.47;3.80;;;20.10;99.90;;;;;;5073235;28;20206;-68
2021/03/19 11:48:44;;;;;;;28.80;4.70;;;20.10;99.90;;;;;;5069076;28;20229;-69
2021/03/19 11:51:31;;;;;;;32.87;3.83;;;20.10;99.90;;;;;;5072674;28;20229;-70
2021/03/19 11:54:05;;;;;;;33.23;6.60;;;20.20;99.90;;;;;;5069124;28;20626;-68
2021/03/19 11:56:33;;;;;;;34.23;4.63;;;20.10;99.90;;;;;;5064986;28;20186;-69
2021/03/19 11:59:00;;;;;;;22.73;3.87;;;20.20;99.90;;;;;;5071384;28;20277;-69
2021/03/19 12:01:32;;;;;;;31.47;4.50;;;20.20;99.90;;;;;;5071129;28;20190;-70
2021/03/19 12:04:00;;;;;;;31.30;4.90;;;20.20;99.90;;;;;;5061397;28;20191;-67
2021/03/19 12:06:32;;;;;;;28.10;3.87;;;20.20;99.90;;;;;;5072953;28;20273;-70
2021/03/19 12:09:00;;;;;;;27.60;4.43;;;20.30;99.90;;;;;;5071930;28;20574;-68
2021/03/19 12:11:35;;;;;;;31.17;4.47;;;20.40;99.90;;;;;;5072144;28;20175;-70
2021/03/19 12:14:04;;;;;;;32.30;4.07;;;20.50;99.90;;;;;;5073117;28;20186;-70
2021/03/19 12:16:32;;;;;;;25.53;3.77;;;20.50;99.90;;;;;;5073184;28;20629;-70
2021/03/19 12:19:00;;;;;;;25.97;4.23;;;20.50;99.90;;;;;;5072345;28;20183;-71
2021/03/19 12:21:28;;;;;;;26.47;4.30;;;20.60;99.90;;;;;;5070473;28;20195;-68
2021/03/19 12:23:55;;;;;;;22.83;3.47;;;20.50;99.90;;;;;;5072026;28;20175;-68
2021/03/19 12:26:23;;;;;;;31.77;4.37;;;20.50;99.90;;;;;;5072236;28;20645;-68
2021/03/19 12:28:50;;;;;;;27.57;3.83;;;20.50;99.90;;;;;;5061592;28;20215;-68
2021/03/19 12:31:18;;;;;;;25.57;3.90;;;20.40;99.90;;;;;;5072521;28;20183;-69
2021/03/19 12:33:46;;;;;;;19.07;3.33;;;20.30;99.90;;;;;;5073266;28;20251;-68
2021/03/19 12:36:14;;;;;;;29.60;4.40;;;20.30;99.90;;;;;;5073730;28;20179;-68
2021/03/19 12:38:41;;;;;;;29.10;3.77;;;20.30;99.90;;;;;;5073005;28;20190;-68
2021/03/19 12:41:09;;;;;;;17.33;3.93;;;20.20;99.90;;;;;;5073079;28;20259;-67
2021/03/19 12:43:36;;;;;;;17.40;4.00;;;20.20;99.90;;;;;;5071164;28;20187;-68
2021/03/19 12:46:05;;;;;;;30.13;5.10;;;20.30;99.90;;;;;;5073355;28;20633;-70
2021/03/19 12:48:33;;;;;;;31.73;4.63;;;20.30;99.90;;;;;;5073497;28;20179;-69
2021/03/19 12:51:01;;;;;;;29.03;4.20;;;20.30;99.90;;;;;;5070171;28;20171;-70
2021/03/19 12:56:50;;;;;;;31.70;4.80;;;20.40;99.90;;;;;;5068827;28;20198;-67
2021/03/19 12:59:17;;;;;;;29.67;4.73;;;20.60;99.90;;;;;;5055577;28;20172;-68
2021/03/19 13:01:45;;;;;;;24.50;4.17;;;20.70;99.90;;;;;;5069857;28;20244;-67
2021/03/19 13:04:12;;;;;;;32.37;4.67;;;20.80;99.90;;;;;;5058100;28;20193;-70
2021/03/19 13:06:42;;;;;;;35.13;5.53;;;20.90;99.90;;;;;;5072079;28;20194;-67
2021/03/19 13:09:14;;;;;;;39.50;8.57;;;20.90;99.90;;;;;;5068989;28;20187;-69
2021/03/19 13:11:42;;;;;;;33.73;5.27;;;20.90;99.90;;;;;;5058515;28;20191;-68
2021/03/19 13:14:09;;;;;;;24.47;4.60;;;20.90;99.90;;;;;;5070277;28;20225;-68
2021/03/19 13:16:37;;;;;;;27.10;4.17;;;20.90;99.90;;;;;;5072229;28;20522;-69
2021/03/19 13:19:06;;;;;;;23.13;4.53;;;20.90;99.90;;;;;;5071505;28;20167;-69
2021/03/19 13:21:35;;;;;;;31.30;4.30;;;20.90;99.90;;;;;;5072744;28;20175;-69
2021/03/19 13:24:04;;;;;;;34.07;4.90;;;21.00;99.90;;;;;;5072589;28;20517;-70
2021/03/19 13:26:33;;;;;;;18.83;3.43;;;21.00;99.90;;;;;;5072027;28;20163;-67
2021/03/19 13:29:00;;;;;;;26.80;5.20;;;21.10;99.90;;;;;;5072188;28;20258;-68